Time;durP1;ratioP1;P1;durP2;ratioP2;P2;SDS_P1;SDS_P2;PMS_P1;PMS_P2;Temp;Humidity;BMP_temperature;BMP_pressure;BME280_temperature;BME280_humidity;BME280_pressure;Samples;Min_cycle;Max_cycle;Signal;HPM_P1;HPM_P2
2022/08/15 00:02:00;;;;;;;6.10;2.50;;;21.70;76.00;;;21.72;55.67;96266.22;5039371;28;20032;-44
2022/08/15 00:04:27;;;;;;;2.80;2.22;;;21.60;76.20;;;21.67;55.34;96262.31;5040566;28;20765;-46
2022/08/15 00:06:52;;;;;;;2.40;2.20;;;21.60;76.10;;;21.66;55.83;96247.22;5040006;28;20037;-43
2022/08/15 00:09:22;;;;;;;3.33;2.20;;;21.60;76.30;;;21.67;55.95;96251.59;5037882;28;20554;-47
2022/08/15 00:11:55;;;;;;;3.08;2.38;;;21.60;76.40;;;21.64;56.21;96244.72;5037328;28;20034;-43
2022/08/15 00:14:30;;;;;;;4.05;2.67;;;21.60;76.60;;;21.60;55.80;96253.22;5039114;28;20112;-45
2022/08/15 00:16:58;;;;;;;3.17;2.50;;;21.50;76.50;;;21.63;55.56;96255.59;5040594;28;20194;-43
2022/08/15 00:19:29;;;;;;;2.83;2.30;;;21.50;76.30;;;21.61;55.87;96253.06;5038066;28;20038;-44
2022/08/15 00:22:00;;;;;;;5.18;2.40;;;21.50;76.50;;;21.59;56.63;96251.50;5040850;28;20017;-47
2022/08/15 00:24:30;;;;;;;3.10;2.55;;;21.50;77.10;;;21.53;57.88;96253.84;5037407;28;20037;-43
2022/08/15 00:26:58;;;;;;;3.95;2.22;;;21.40;78.00;;;21.46;59.83;96238.47;5040271;28;20040;-47
2022/08/15 00:29:27;;;;;;;3.28;2.47;;;21.40;79.40;;;21.38;60.29;96239.22;5035737;28;20037;-47
2022/08/15 00:31:53;;;;;;;3.45;2.55;;;21.30;79.60;;;21.29;62.11;96230.25;5037891;28;20033;-43
2022/08/15 00:34:22;;;;;;;3.75;2.10;;;21.30;80.60;;;21.22;62.14;96236.38;5036086;28;20052;-43
2022/08/15 00:36:49;;;;;;;2.85;2.33;;;21.20;81.00;;;21.09;63.63;96236.75;5021981;28;20018;-45
2022/08/15 00:39:22;;;;;;;5.22;2.50;;;21.10;81.90;;;21.09;63.45;96267.06;5031253;28;20025;-44
2022/08/15 00:41:49;;;;;;;4.30;2.50;;;21.10;81.90;;;20.99;65.43;96260.91;5038845;28;20033;-48
2022/08/15 00:44:42;;;;;;;3.72;2.72;;;21.00;83.30;;;20.98;66.33;96283.34;5037704;28;20305;-47
2022/08/15 00:47:16;;;;;;;4.13;2.83;;;21.00;83.90;;;20.98;67.39;96269.94;5029162;28;20053;-43
2022/08/15 00:49:43;;;;;;;3.22;2.90;;;21.00;85.00;;;20.95;67.63;96280.97;5037806;28;20083;-46
2022/08/15 00:52:17;;;;;;;3.03;2.40;;;20.90;84.90;;;20.91;68.48;96284.94;5037946;28;20095;-44
2022/08/15 00:54:48;;;;;;;3.50;2.50;;;20.90;85.70;;;20.77;68.64;96254.94;5022404;28;20037;-44
2022/08/15 00:57:23;;;;;;;2.70;2.50;;;20.90;86.00;;;20.88;68.57;96274.50;5019907;28;20393;-46
2022/08/15 00:59:54;;;;;;;3.10;2.80;;;20.90;85.90;;;20.86;69.51;96279.19;5025602;28;20032;-45
2022/08/15 01:02:26;;;;;;;2.60;2.40;;;20.80;86.50;;;20.80;71.27;96269.91;5023540;28;20036;-45
2022/08/15 01:04:51;;;;;;;3.40;2.80;;;20.80;87.90;;;20.80;70.09;96275.25;5027018;28;20040;-44
2022/08/15 01:07:18;;;;;;;3.45;2.65;;;20.80;87.00;;;20.78;69.43;96272.72;5040387;28;20029;-45
2022/08/15 01:09:44;;;;;;;2.85;2.33;;;20.70;86.70;;;20.71;69.19;96260.03;5040919;28;20539;-47
2022/08/15 01:12:16;;;;;;;3.30;2.80;;;20.70;86.60;;;20.71;68.76;96255.56;5042474;28;20158;-46
2022/08/15 01:14:47;;;;;;;2.78;2.58;;;20.70;86.50;;;20.68;68.47;96253.16;5044008;28;20063;-47
2022/08/15 01:17:15;;;;;;;3.43;2.53;;;20.70;86.00;;;20.66;67.86;96255.16;5024007;28;20495;-42
2022/08/15 01:19:52;;;;;;;2.80;2.60;;;20.70;86.00;;;20.65;67.11;96264.16;5041261;28;20033;-43
2022/08/15 01:22:52;;;;;;;10.05;3.50;;;20.60;85.50;;;20.65;66.09;96258.81;5040347;28;20017;-47
2022/08/15 01:25:56;;;;;;;3.05;2.60;;;20.60;84.90;;;20.65;66.58;96263.31;5018277;28;20026;-44
2022/08/15 01:28:28;;;;;;;3.35;2.70;;;20.60;85.30;;;20.64;67.82;96267.84;5023118;28;20980;-45
2022/08/15 01:30:56;;;;;;;;;;;20.60;86.10;;;20.64;68.24;96273.19;5024867;28;20485;-44
2022/08/15 01:33:24;;;;;;;3.25;2.58;;;20.60;86.50;;;20.63;68.35;96265.31;5040277;28;19925;-44
2022/08/15 01:35:52;;;;;;;4.32;2.80;;;20.60;86.60;;;20.63;68.17;96268.81;5039611;28;20037;-46
2022/08/15 01:38:26;;;;;;;5.47;2.47;;;20.60;86.60;;;20.64;67.48;96266.97;5036236;28;21725;-46
2022/08/15 01:41:11;;;;;;;3.40;2.63;;;20.60;86.10;;;20.62;67.96;96267.16;5040609;28;20029;-46
2022/08/15 01:43:46;;;;;;;3.92;2.63;;;20.60;86.30;;;20.62;68.75;96269.84;5013640;23;20054;-62
2022/08/15 01:46:13;;;;;;;3.90;3.05;;;20.60;86.90;;;20.64;67.73;96265.16;4987292;28;20044;-62
2022/08/15 01:48:48;;;;;;;3.67;2.88;;;20.60;86.60;;;20.66;67.76;96275.75;5004680;28;20040;-62
2022/08/15 01:51:17;;;;;;;3.88;2.85;;;20.60;86.30;;;20.67;67.79;96278.25;5001820;28;20250;-62
2022/08/15 01:53:54;;;;;;;3.55;2.97;;;20.60;86.30;;;20.69;67.94;96275.44;5003652;28;20132;-62
2022/08/15 01:56:40;;;;;;;3.88;2.85;;;20.70;86.80;;;20.72;68.53;96275.13;4987441;28;20029;-62
2022/08/15 01:59:16;;;;;;;5.78;2.80;;;20.70;87.00;;;20.73;68.59;96279.53;5003695;28;20029;-62
2022/08/15 02:01:53;;;;;;;3.45;3.03;;;20.70;87.00;;;20.74;69.13;96273.97;5005446;28;20569;-62
2022/08/15 02:04:28;;;;;;;4.50;3.10;;;20.70;87.40;;;20.76;69.24;96274.72;5005406;28;20033;-62
2022/08/15 02:06:56;;;;;;;5.05;3.15;;;20.70;87.60;;;20.76;70.32;96271.16;5005373;28;20041;-63
2022/08/15 02:09:21;;;;;;;7.03;3.30;;;20.80;88.40;;;20.74;71.06;96273.16;5004066;28;20056;-62
2022/08/15 02:11:54;;;;;;;5.35;3.38;;;20.70;88.80;;;20.73;71.29;96266.97;5002421;28;20331;-62
2022/08/15 02:14:20;;;;;;;;;;;20.70;88.90;;;20.72;71.56;96265.25;5004877;28;20396;-63
2022/08/15 02:16:47;;;;;;;5.68;2.90;;;20.70;89.30;;;20.70;72.89;96272.59;5004248;28;19916;-62
2022/08/15 02:19:15;;;;;;;5.60;3.33;;;20.70;89.80;;;20.68;72.54;96265.72;5005100;28;20033;-62
2022/08/15 02:21:44;;;;;;;8.07;3.22;;;20.70;90.00;;;20.70;73.41;96266.41;5003663;28;21023;-63
2022/08/15 02:24:16;;;;;;;6.22;3.42;;;20.70;90.30;;;20.68;73.08;96266.56;5006354;28;20096;-63
2022/08/15 02:26:41;;;;;;;4.47;3.10;;;20.70;90.20;;;20.66;73.31;96267.69;5006122;28;20030;-63
2022/08/15 02:29:07;;;;;;;4.25;2.97;;;20.70;90.40;;;20.64;74.00;96265.16;5004564;28;20096;-63
2022/08/15 02:31:34;;;;;;;5.30;2.85;;;20.60;90.50;;;20.62;74.03;96259.13;5004833;28;20427;-63
2022/08/15 02:34:02;;;;;;;6.82;3.63;;;20.60;90.60;;;20.61;74.28;96260.09;5006659;28;20156;-63
2022/08/15 02:36:34;;;;;;;5.15;3.42;;;20.60;90.70;;;20.63;74.51;96266.16;5003731;28;20060;-63
2022/08/15 02:39:07;;;;;;;5.45;3.45;;;20.60;90.90;;;20.63;74.90;96273.34;5005955;28;20125;-63
2022/08/15 02:41:38;;;;;;;3.78;2.78;;;20.60;91.00;;;20.63;74.46;96271.50;5005630;28;20022;-63
2022/08/15 02:44:05;;;;;;;5.30;3.28;;;20.60;90.90;;;20.63;74.71;96268.00;5004321;28;20030;-65
2022/08/15 02:46:31;;;;;;;6.30;2.72;;;20.60;90.90;;;20.61;74.60;96265.44;5005092;28;20077;-65
2022/08/15 02:49:01;;;;;;;4.45;2.58;;;20.60;91.00;;;20.59;74.84;96272.75;5004776;28;20042;-65
2022/08/15 02:51:28;;;;;;;4.13;2.90;;;20.60;91.10;;;20.59;74.79;96281.63;5003765;28;20513;-65
2022/08/15 02:53:55;;;;;;;4.93;2.55;;;20.60;91.20;;;20.59;75.18;96286.16;4988941;28;20107;-65
2022/08/15 02:56:26;;;;;;;4.05;2.80;;;20.60;91.70;;;20.56;75.74;96284.59;5001159;28;20501;-65
2022/08/15 02:58:53;;;;;;;5.35;2.97;;;20.60;91.40;;;20.51;75.79;96284.22;5004500;28;20021;-65
2022/08/15 03:01:22;;;;;;;7.85;2.90;;;20.50;91.50;;;20.53;76.30;96290.25;4986886;28;20485;-65
2022/08/15 03:03:51;;;;;;;3.28;2.65;;;20.50;91.70;;;20.53;75.97;96286.72;4986295;28;20103;-65
2022/08/15 03:06:24;;;;;;;2.80;2.30;;;20.60;91.70;;;20.54;76.43;96291.09;5002339;28;20041;-65
2022/08/15 03:08:50;;;;;;;3.00;2.50;;;20.50;91.80;;;20.53;76.42;96292.94;5005152;28;20113;-65
2022/08/15 03:11:16;;;;;;;4.30;3.00;;;20.50;91.80;;;20.54;76.70;96296.47;4986547;28;20112;-65
2022/08/15 03:13:43;;;;;;;4.43;2.83;;;20.50;91.90;;;20.50;76.82;96287.88;5003082;28;20026;-65
2022/08/15 03:16:11;;;;;;;4.60;2.53;;;20.50;92.00;;;20.54;77.15;96291.09;5002503;28;20026;-65
2022/08/15 03:18:38;;;;;;;5.03;2.45;;;20.60;92.10;;;20.52;76.99;96285.03;5000020;28;20032;-65
2022/08/15 03:21:08;;;;;;;5.38;2.85;;;20.50;92.20;;;20.53;77.32;96289.41;5003813;28;20567;-65
2022/08/15 03:23:34;;;;;;;4.75;2.80;;;20.50;92.30;;;20.54;77.65;96285.75;5003762;28;20036;-65
2022/08/15 03:26:04;;;;;;;5.07;2.65;;;20.50;92.40;;;20.43;77.61;96268.03;5002820;28;20129;-65
2022/08/15 03:28:33;;;;;;;3.88;2.40;;;20.60;92.50;;;20.52;77.00;96279.69;5002271;28;20452;-65
2022/08/15 03:31:04;;;;;;;4.22;2.50;;;20.60;92.40;;;20.54;77.36;96288.41;5002969;28;20060;-64
2022/08/15 03:33:32;;;;;;;4.18;2.55;;;20.60;92.40;;;20.53;77.20;96292.94;4986298;28;20064;-65
2022/08/15 03:35:58;;;;;;;5.22;2.83;;;20.60;92.40;;;20.52;78.13;96283.22;5003542;28;20033;-65
2022/08/15 03:38:24;;;;;;;5.68;2.65;;;20.50;92.60;;;20.52;78.63;96295.75;5003643;28;20056;-65
2022/08/15 03:40:51;;;;;;;6.50;2.72;;;20.50;92.70;;;20.49;78.67;96294.19;5003427;28;20088;-65
2022/08/15 03:43:22;;;;;;;3.28;2.25;;;20.50;92.90;;;20.47;79.45;96292.66;4982766;28;20065;-65
2022/08/15 03:46:02;;;;;;;4.22;2.80;;;20.50;93.20;;;20.45;79.58;96292.81;5003707;28;20036;-65
2022/08/15 03:48:34;;;;;;;3.25;2.30;;;20.50;93.30;;;20.43;80.10;96293.97;5003833;28;20029;-65
2022/08/15 03:51:01;;;;;;;5.30;2.63;;;20.40;93.40;;;20.43;80.24;96296.63;4985667;28;20528;-65
2022/08/15 03:53:32;;;;;;;6.30;2.75;;;20.40;93.60;;;20.37;81.28;96292.72;5002299;28;20077;-65
2022/08/15 03:56:01;;;;;;;4.65;2.42;;;20.40;93.90;;;20.33;82.41;96289.47;5003088;28;20037;-65
2022/08/15 03:58:29;;;;;;;3.25;2.55;;;20.30;94.20;;;20.24;82.39;96282.28;5002280;28;20252;-65
2022/08/15 04:00:54;;;;;;;4.72;2.75;;;20.30;94.30;;;20.21;82.93;96293.31;5002231;28;20033;-65
2022/08/15 04:03:25;;;;;;;4.68;2.72;;;20.30;94.70;;;20.16;83.69;96295.56;5004046;28;20141;-65
2022/08/15 04:05:57;;;;;;;4.78;2.47;;;20.20;94.90;;;20.14;84.71;96294.84;5002547;28;20084;-65
2022/08/15 04:08:26;;;;;;;3.25;2.28;;;20.20;95.30;;;20.10;85.71;96293.44;4987435;28;20477;-65
2022/08/15 04:10:53;;;;;;;5.82;2.90;;;20.10;95.60;;;20.08;86.25;96282.03;5001096;28;20042;-65
2022/08/15 04:13:23;;;;;;;6.03;2.25;;;20.10;96.00;;;20.03;86.80;96286.00;5001291;28;20526;-65
2022/08/15 04:15:49;;;;;;;5.78;2.58;;;20.00;96.10;;;19.99;87.38;96287.28;5003182;28;20026;-65
2022/08/15 04:18:15;;;;;;;4.72;2.60;;;20.00;96.40;;;19.94;88.04;96292.19;5003286;28;20083;-65
2022/08/15 04:20:42;;;;;;;3.25;2.20;;;20.00;96.70;;;19.91;88.55;96291.63;5003170;28;20263;-65
2022/08/15 04:23:08;;;;;;;5.22;2.72;;;19.90;96.90;;;19.87;88.93;96293.75;5002572;28;20026;-65
2022/08/15 04:25:38;;;;;;;6.85;2.40;;;19.90;97.20;;;19.86;89.06;96293.91;5000325;28;20058;-65
2022/08/15 04:28:05;;;;;;;4.13;2.35;;;19.90;97.30;;;19.85;89.32;96293.06;5003270;28;20037;-65
2022/08/15 04:30:38;;;;;;;4.53;2.70;;;19.90;97.40;;;19.86;89.40;96294.72;4986542;28;20504;-65
2022/08/15 04:33:19;;;;;;;2.97;2.40;;;19.90;97.60;;;19.87;88.72;96293.75;5003185;28;20033;-65
2022/08/15 04:35:50;;;;;;;3.38;2.45;;;19.90;97.50;;;19.88;88.89;96299.94;5006933;28;20030;-65
2022/08/15 04:38:17;;;;;;;3.07;2.27;;;19.90;97.50;;;19.91;88.58;96302.34;5007593;28;20038;-62
2022/08/15 04:40:44;;;;;;;4.15;2.47;;;19.90;97.60;;;19.93;88.24;96305.72;5007106;28;20037;-62
2022/08/15 04:43:11;;;;;;;3.97;2.13;;;20.00;97.60;;;19.95;87.44;96311.75;5006464;28;20385;-62
2022/08/15 04:45:39;;;;;;;5.32;2.30;;;20.00;97.40;;;19.96;87.29;96314.31;5007457;28;20065;-62
2022/08/15 04:48:06;;;;;;;5.55;2.28;;;20.00;97.30;;;19.93;86.26;96305.72;5007703;28;20505;-65
2022/08/15 04:50:37;;;;;;;5.75;2.30;;;20.00;97.10;;;19.97;85.62;96320.50;5006997;28;20064;-65
2022/08/15 04:53:05;;;;;;;5.63;2.35;;;20.00;96.90;;;19.96;85.36;96321.50;5006539;28;20073;-65
2022/08/15 04:55:31;;;;;;;3.05;2.15;;;20.00;96.70;;;19.91;85.52;96321.91;5006077;28;20211;-66
2022/08/15 04:57:58;;;;;;;2.20;1.80;;;19.90;96.80;;;19.90;84.96;96314.00;5005452;28;20050;-65
2022/08/15 05:00:31;;;;;;;2.60;2.10;;;19.90;96.80;;;19.89;85.07;96312.34;5004301;28;20083;-65
2022/08/15 05:03:19;;;;;;;3.40;2.00;;;19.90;96.80;;;19.87;84.78;96314.31;5003494;28;20981;-65
2022/08/15 05:05:57;;;;;;;4.28;2.30;;;19.90;96.80;;;19.85;84.84;96325.16;5004736;28;20042;-66
2022/08/15 05:08:26;;;;;;;4.90;2.05;;;19.90;96.80;;;19.86;84.97;96321.47;5005690;28;20351;-66
2022/08/15 05:11:02;;;;;;;3.33;2.08;;;19.90;96.80;;;19.87;84.39;96323.19;4988016;28;20030;-64
2022/08/15 05:13:32;;;;;;;3.75;2.10;;;19.90;96.70;;;19.85;84.58;96322.47;5006593;28;20034;-64
2022/08/15 05:15:58;;;;;;;2.70;1.90;;;19.90;96.80;;;19.84;84.60;96318.94;5006389;28;20037;-64
2022/08/15 05:18:26;;;;;;;3.58;2.05;;;19.90;96.90;;;19.84;84.36;96323.47;5006747;28;20036;-64
2022/08/15 05:20:53;;;;;;;4.35;1.90;;;19.90;96.80;;;19.81;84.32;96308.53;5005856;28;20049;-64
2022/08/15 05:23:21;;;;;;;2.58;1.80;;;19.80;96.80;;;19.82;84.33;96314.72;5006283;28;20033;-64
2022/08/15 05:25:54;;;;;;;4.00;1.55;;;19.90;96.90;;;19.85;84.17;96309.09;5005280;28;20120;-64
2022/08/15 05:28:20;;;;;;;3.88;1.83;;;19.90;96.90;;;19.85;83.64;96306.44;5005920;28;20033;-64
2022/08/15 05:30:47;;;;;;;2.03;1.48;;;19.90;96.70;;;19.90;82.97;96301.50;5005553;28;20395;-64
2022/08/15 05:33:18;;;;;;;4.00;1.80;;;19.90;96.60;;;19.97;82.63;96302.63;5004974;28;20026;-64
2022/08/15 05:35:52;;;;;;;2.30;1.85;;;20.00;96.50;;;20.01;82.43;96303.19;5005823;28;20022;-64
2022/08/15 05:38:30;;;;;;;3.03;1.63;;;20.00;96.30;;;20.00;82.22;96294.28;5006015;28;20026;-64
2022/08/15 05:42:11;;;;;;;21.40;2.15;;;20.00;96.40;;;20.04;82.38;96297.53;4988231;28;20065;-64
2022/08/15 05:44:52;;;;;;;2.80;1.92;;;20.00;96.30;;;20.09;83.50;96307.81;4947315;28;20043;-64
2022/08/15 05:47:37;;;;;;;4.93;2.08;;;20.10;96.70;;;20.04;85.16;96302.88;4961020;28;20038;-64
2022/08/15 05:50:30;;;;;;;3.35;1.88;;;20.10;97.40;;;20.02;86.05;96302.19;4982882;28;20056;-64
2022/08/15 05:53:10;;;;;;;2.53;1.90;;;20.10;97.50;;;19.99;87.31;96308.69;5006298;28;20034;-64
2022/08/15 05:56:06;;;;;;;3.92;2.30;;;20.00;97.90;;;19.93;86.17;96295.00;5002852;28;20505;-64
2022/08/15 05:58:50;;;;;;;2.70;2.13;;;20.00;97.80;;;19.89;85.43;96286.44;5004087;28;20091;-64
2022/08/15 06:01:29;;;;;;;2.10;1.77;;;20.00;97.60;;;19.86;85.52;96291.22;5004823;28;20299;-64
2022/08/15 06:04:10;;;;;;;2.97;1.70;;;19.90;98.10;;;19.81;85.49;96284.47;4988674;28;20025;-64
2022/08/15 06:06:40;;;;;;;3.90;1.67;;;19.90;97.60;;;19.80;85.94;96273.91;5005363;28;20104;-64
2022/08/15 06:09:35;;;;;;;2.80;1.73;;;19.80;97.80;;;19.79;85.40;96270.41;4989352;28;20486;-64
2022/08/15 06:12:08;;;;;;;2.50;1.58;;;19.90;97.80;;;19.79;85.44;96262.38;5004385;28;20046;-64
2022/08/15 06:14:40;;;;;;;4.22;2.20;;;19.80;97.70;;;19.81;85.34;96270.22;5005509;28;20175;-64
2022/08/15 06:17:24;;;;;;;2.67;1.45;;;19.80;97.90;;;19.85;85.26;96282.34;4989823;28;20033;-64
2022/08/15 06:19:51;;;;;;;2.20;1.40;;;19.90;97.90;;;19.86;85.39;96296.56;5005686;28;20034;-64
2022/08/15 06:22:47;;;;;;;4.78;1.85;;;19.90;98.00;;;19.88;86.33;96314.16;5005639;28;20034;-64
2022/08/15 06:25:57;;;;;;;2.72;1.63;;;19.90;98.00;;;20.05;87.25;96306.44;4986376;28;20040;-64
2022/08/15 06:29:07;;;;;;;2.28;1.75;;;20.00;98.80;;;20.18;88.62;96320.34;4987672;28;20395;-64
2022/08/15 06:31:37;;;;;;;5.18;2.15;;;20.10;99.10;;;20.18;89.16;96315.81;5003739;28;20053;-64
2022/08/15 06:34:44;;;;;;;4.60;1.60;;;20.20;99.30;;;20.19;88.80;96319.38;5005850;28;20115;-64
2022/08/15 06:37:44;;;;;;;2.90;1.90;;;20.20;98.90;;;20.17;86.37;96321.31;4989552;28;20026;-64
2022/08/15 06:40:47;;;;;;;4.35;2.08;;;20.20;98.60;;;20.23;88.04;96327.97;5001317;28;20076;-64
2022/08/15 06:43:13;;;;;;;;;;;20.30;98.90;;;20.21;88.83;96333.44;5004426;28;20040;-64
2022/08/15 06:45:44;;;;;;;3.03;1.63;;;20.30;99.40;;;20.29;86.00;96338.91;5005197;28;20012;-64
2022/08/15 06:48:16;;;;;;;4.13;1.80;;;20.40;98.70;;;20.32;84.47;96349.34;4988105;28;20060;-64
2022/08/15 06:50:49;;;;;;;2.42;1.75;;;20.40;97.90;;;20.45;82.55;96342.84;5005672;28;20018;-64
2022/08/15 06:53:37;;;;;;;3.72;1.58;;;20.50;97.70;;;20.60;81.46;96342.25;4989414;28;20034;-64
2022/08/15 06:56:17;;;;;;;4.47;1.90;;;20.60;97.20;;;20.81;80.03;96340.41;5004349;28;20367;-64
2022/08/15 06:59:17;;;;;;;4.28;1.50;;;20.90;97.10;;;21.05;78.06;96334.50;5004565;28;20053;-64
2022/08/15 07:02:18;;;;;;;3.03;1.67;;;21.10;96.10;;;21.14;76.79;96336.31;5005098;28;20030;-64
2022/08/15 07:05:14;;;;;;;4.57;1.67;;;21.20;95.50;;;21.15;76.02;96333.47;5005337;28;20025;-64
2022/08/15 07:07:56;;;;;;;3.15;1.77;;;21.20;95.00;;;21.13;76.12;96335.47;5003221;28;20076;-64
2022/08/15 07:10:50;;;;;;;2.05;1.52;;;21.20;94.90;;;21.16;75.21;96331.66;5004804;28;20022;-64
2022/08/15 07:13:25;;;;;;;4.55;2.15;;;21.20;94.70;;;21.20;74.76;96337.56;4987886;28;20045;-64
2022/08/15 07:15:58;;;;;;;3.58;1.77;;;21.20;94.60;;;21.19;74.07;96344.75;5004058;28;20030;-64
2022/08/15 07:18:43;;;;;;;2.85;1.60;;;21.30;94.40;;;21.08;74.93;96340.41;5005659;28;20037;-64
2022/08/15 07:21:18;;;;;;;1.52;1.33;;;21.20;94.50;;;21.05;74.35;96331.81;5004027;28;20030;-64
2022/08/15 07:24:22;;;;;;;1.95;1.60;;;21.10;94.40;;;21.27;74.33;96330.63;5004401;28;20137;-64
2022/08/15 07:27:06;;;;;;;2.75;1.77;;;21.20;94.50;;;21.65;72.50;96340.28;5004883;28;20045;-64
2022/08/15 07:29:37;;;;;;;3.13;1.60;;;21.50;94.10;;;21.81;70.54;96336.91;5004705;28;20400;-64
2022/08/15 07:32:21;;;;;;;3.00;1.80;;;21.80;93.40;;;21.88;70.84;96345.22;5003589;28;20261;-64
2022/08/15 07:35:15;;;;;;;2.65;1.75;;;21.80;93.20;;;22.02;69.94;96339.31;5004129;28;20116;-64
2022/08/15 07:37:46;;;;;;;2.85;1.60;;;22.00;93.00;;;21.96;68.85;96341.75;5005924;28;20037;-64
2022/08/15 07:40:38;;;;;;;2.07;1.70;;;22.00;92.60;;;21.79;68.87;96348.81;5002610;28;20034;-65
2022/08/15 07:43:32;;;;;;;2.05;1.60;;;21.80;92.40;;;21.60;69.47;96344.41;5027611;22;20055;-50
2022/08/15 07:46:18;;;;;;;4.45;1.90;;;21.60;92.40;;;21.74;70.22;96333.16;5023941;28;20037;-46
2022/08/15 07:49:00;;;;;;;2.90;1.55;;;21.70;93.00;;;22.02;69.42;96346.50;5040996;28;20051;-45
2022/08/15 07:51:44;;;;;;;2.77;1.90;;;22.00;92.90;;;22.31;67.43;96348.97;5040997;28;20136;-53
2022/08/15 07:54:33;;;;;;;2.38;1.88;;;22.30;92.20;;;22.63;65.64;96351.06;5023923;28;20017;-49
2022/08/15 07:57:06;;;;;;;2.92;1.60;;;22.60;91.60;;;22.78;64.37;96354.00;5023878;28;20303;-48
2022/08/15 07:59:35;;;;;;;2.97;1.45;;;22.80;91.00;;;22.98;62.35;96353.78;5025317;28;20024;-50
2022/08/15 08:02:27;;;;;;;2.95;1.58;;;23.00;90.30;;;23.16;61.90;96351.06;5039212;28;20504;-48
2022/08/15 08:04:53;;;;;;;3.33;1.60;;;23.20;90.20;;;23.34;61.98;96356.34;5041250;28;20017;-47
2022/08/15 08:07:32;;;;;;;3.33;1.75;;;23.40;90.00;;;23.34;60.85;96365.25;5043066;28;20041;-47
2022/08/15 08:10:23;;;;;;;2.40;1.40;;;23.40;88.80;;;23.58;59.67;96367.22;5039321;28;20029;-51
2022/08/15 08:13:02;;;;;;;3.40;1.65;;;23.60;88.90;;;23.74;58.40;96333.25;5040422;28;20078;-47
2022/08/15 08:16:20;;;;;;;1.60;1.30;;;23.80;87.40;;;23.98;57.00;96354.06;5025400;28;20032;-48
2022/08/15 08:19:00;;;;;;;6.32;1.67;;;24.00;85.80;;;24.13;56.60;96359.63;5036010;28;20041;-46
2022/08/15 08:22:17;;;;;;;3.53;1.80;;;24.10;85.30;;;24.01;56.25;96359.94;5025580;28;20048;-50
2022/08/15 08:25:26;;;;;;;2.25;1.38;;;24.10;84.70;;;24.05;56.39;96355.06;5002872;28;20116;-48
2022/08/15 08:28:43;;;;;;;3.05;1.50;;;24.00;85.40;;;23.72;57.35;96364.88;5039523;28;20035;-47
2022/08/15 08:31:31;;;;;;;2.80;1.50;;;23.70;85.70;;;23.46;58.51;96355.06;5018706;28;20132;-46
2022/08/15 08:34:39;;;;;;;4.47;1.80;;;23.40;86.50;;;23.36;58.39;96357.88;5041470;28;20032;-48
2022/08/15 08:37:38;;;;;;;2.35;1.33;;;23.30;86.50;;;23.42;57.35;96341.09;5024489;28;20044;-47
2022/08/15 08:43:55;;;;;;;2.25;1.40;;;23.50;86.20;;;23.85;56.37;96345.59;5040230;28;20118;-47
2022/08/15 08:46:48;;;;;;;1.30;1.20;;;23.80;85.10;;;23.68;56.53;96363.53;4941508;28;20063;-46
2022/08/15 08:49:32;;;;;;;1.65;1.40;;;23.70;84.60;;;23.47;57.40;96359.41;5037943;28;20029;-50
2022/08/15 08:52:12;;;;;;;1.52;1.30;;;23.50;85.40;;;23.57;56.95;96364.69;5023582;28;20487;-49
2022/08/15 08:55:00;;;;;;;2.58;1.30;;;23.60;85.50;;;23.83;56.50;96361.91;5040039;28;20036;-50
2022/08/15 08:57:46;;;;;;;1.98;1.30;;;23.80;85.10;;;24.11;54.91;96358.94;5023345;28;20043;-49
2022/08/15 09:00:20;;;;;;;3.72;1.70;;;24.10;84.00;;;24.49;52.63;96362.81;5024887;28;20017;-47
2022/08/15 09:03:02;;;;;;;1.67;1.52;;;24.50;82.00;;;24.84;52.84;96359.97;5024433;28;20032;-50
2022/08/15 09:05:51;;;;;;;;;;;24.80;81.60;;;25.08;53.33;96362.59;5024356;28;20074;-49
2022/08/15 09:08:41;;;;;;;4.35;1.63;;;25.00;82.30;;;25.35;53.61;96360.53;5042152;28;20007;-48
2022/08/15 09:11:19;;;;;;;2.63;2.08;;;25.30;82.00;;;25.29;52.48;96364.75;5023584;28;20040;-50
2022/08/15 09:13:46;;;;;;;2.80;1.70;;;25.40;80.80;;;25.20;52.62;96375.72;5042082;28;20121;-50
2022/08/15 09:16:21;;;;;;;2.58;1.90;;;25.30;80.70;;;25.16;52.89;96372.53;5037919;28;20036;-48
2022/08/15 09:19:15;;;;;;;5.05;1.92;;;25.20;81.20;;;25.14;52.76;96367.31;5039903;28;20486;-47
2022/08/15 09:21:43;;;;;;;3.38;2.03;;;25.10;81.40;;;25.09;53.20;96363.47;5042899;28;20021;-48
2022/08/15 09:24:10;;;;;;;2.55;1.65;;;25.10;81.50;;;25.04;52.75;96366.66;5025253;28;20571;-46
2022/08/15 09:27:01;;;;;;;3.10;1.63;;;25.00;81.60;;;25.03;53.92;96366.81;5027454;28;20500;-46
2022/08/15 09:29:33;;;;;;;2.30;1.80;;;25.00;81.90;;;25.00;53.51;96359.94;5043374;28;20035;-48
2022/08/15 09:32:28;;;;;;;2.57;1.73;;;24.90;81.70;;;25.07;52.20;96362.75;5040587;28;20048;-50
2022/08/15 09:35:22;;;;;;;4.90;1.90;;;25.10;81.00;;;25.31;52.68;96357.31;5043276;28;20279;-51
2022/08/15 09:38:19;;;;;;;5.10;1.60;;;25.30;80.60;;;25.53;49.42;96361.09;5027546;28;20025;-48
2022/08/15 09:40:58;;;;;;;2.55;1.60;;;25.60;78.20;;;25.74;48.58;96351.56;5042356;28;20570;-49
2022/08/15 09:44:37;;;;;;;3.25;1.90;;;25.60;77.00;;;25.28;49.54;96325.28;5027312;28;20041;-48
2022/08/15 09:47:31;;;;;;;3.50;1.80;;;25.40;77.00;;;25.22;50.25;96350.25;4983284;28;20039;-47
2022/08/15 09:50:34;;;;;;;2.67;1.75;;;25.20;78.20;;;25.06;50.62;96350.31;5044486;28;20052;-48
2022/08/15 09:53:26;;;;;;;2.20;1.73;;;25.00;78.20;;;24.87;49.76;96344.28;5043972;28;20120;-47
2022/08/15 09:55:52;;;;;;;2.17;1.80;;;24.90;77.70;;;24.83;50.71;96348.31;5028022;28;20041;-47
2022/08/15 09:58:28;;;;;;;5.53;1.67;;;24.90;78.40;;;24.67;51.62;96342.97;5009772;28;20140;-47
2022/08/15 10:01:08;;;;;;;2.00;1.77;;;24.70;79.00;;;24.53;52.65;96344.50;5025945;28;20067;-48
2022/08/15 10:03:45;;;;;;;3.65;1.70;;;24.50;79.80;;;24.47;52.56;96342.44;5042433;28;20362;-49
2022/08/15 10:06:48;;;;;;;2.75;1.80;;;24.50;80.30;;;24.55;52.21;96345.19;5041954;28;20036;-48
2022/08/15 10:09:29;;;;;;;2.08;1.70;;;24.50;80.10;;;24.68;51.90;96341.97;5026688;28;20040;-49
2022/08/15 10:12:07;;;;;;;2.83;1.70;;;24.60;80.10;;;24.79;51.75;96330.00;5041526;28;20442;-46
2022/08/15 10:15:40;;;;;;;4.45;2.20;;;24.70;79.50;;;25.07;51.74;96323.16;5044087;28;20105;-47
2022/08/15 10:18:08;;;;;;;2.95;1.98;;;25.00;80.20;;;25.38;50.41;96322.41;5036573;28;20032;-50
2022/08/15 10:20:33;;;;;;;2.92;1.95;;;25.40;78.60;;;25.56;49.63;96326.72;5025051;28;20393;-46
2022/08/15 10:22:59;;;;;;;2.20;1.80;;;25.50;77.60;;;25.74;49.74;96318.34;5041949;28;20028;-48
2022/08/15 10:25:36;;;;;;;2.50;1.80;;;25.60;77.50;;;25.86;49.04;96333.09;5042239;28;20022;-50
2022/08/15 10:28:11;;;;;;;3.22;1.88;;;25.70;77.00;;;25.84;48.70;96327.88;5025267;28;20052;-51
2022/08/15 10:30:44;;;;;;;2.08;1.75;;;25.70;76.50;;;25.57;48.64;96326.50;5043116;28;20227;-47
2022/08/15 10:33:35;;;;;;;2.80;1.90;;;25.60;75.80;;;25.21;49.19;96335.06;5041368;28;20318;-47
2022/08/15 10:36:13;;;;;;;3.20;2.22;;;25.20;76.20;;;25.02;49.16;96319.31;5041858;28;20115;-47
2022/08/15 10:38:48;;;;;;;2.90;2.00;;;25.10;76.70;;;24.99;49.35;96317.78;5043708;28;20032;-48
2022/08/15 10:41:57;;;;;;;3.35;1.92;;;25.00;76.90;;;24.90;49.17;96319.66;5023290;28;20025;-48
2022/08/15 10:44:46;;;;;;;2.50;1.70;;;24.90;76.50;;;24.93;49.36;96305.00;5029460;28;20029;-47
2022/08/15 10:47:47;;;;;;;1.92;1.55;;;24.90;76.70;;;25.02;48.62;96313.91;5025468;28;20324;-46
2022/08/15 10:50:24;;;;;;;4.07;1.65;;;25.00;76.10;;;25.14;46.57;96317.91;5042890;28;20025;-51
2022/08/15 10:53:27;;;;;;;1.60;1.50;;;25.10;73.80;;;25.18;45.86;96316.56;5025754;28;20023;-47
2022/08/15 10:56:29;;;;;;;3.75;1.50;;;25.20;73.00;;;25.35;45.70;96309.25;5026937;28;20025;-46
2022/08/15 10:59:25;;;;;;;3.33;1.98;;;25.30;72.80;;;25.20;45.81;96309.13;5040747;28;20033;-46
2022/08/15 11:02:02;;;;;;;3.65;1.60;;;25.30;72.30;;;25.00;46.89;96307.81;5018359;28;20094;-46
2022/08/15 11:04:36;;;;;;;1.92;1.50;;;25.10;73.50;;;24.81;46.97;96307.22;5043274;28;20066;-50
2022/08/15 11:07:27;;;;;;;2.33;1.80;;;24.80;73.60;;;24.63;47.68;96306.59;5040176;28;20029;-48
2022/08/15 11:10:00;;;;;;;2.08;1.70;;;24.70;74.30;;;24.60;47.12;96304.22;5042173;28;20327;-48